sensor_id;sensor_type;location;lat;lon;timestamp;pressure;altitude;pressure_sealevel;temperature;humidity
67818;BME280;54614;47.576;7.524;2023-02-16T00:00:27;99648.78;;;24.18;31.14
67818;BME280;54614;47.576;7.524;2023-02-16T00:02:54;99640.06;;;24.16;31.48
67818;BME280;54614;47.576;7.524;2023-02-16T00:07:50;99646.47;;;24.15;31.26
67818;BME280;54614;47.576;7.524;2023-02-16T00:10:16;99642.94;;;24.14;31.25
67818;BME280;54614;47.576;7.524;2023-02-16T00:12:42;99640.63;;;24.11;31.11
67818;BME280;54614;47.576;7.524;2023-02-16T00:15:27;99646.00;;;24.11;31.32
67818;BME280;54614;47.576;7.524;2023-02-16T00:17:54;99645.34;;;24.09;31.56
67818;BME280;54614;47.576;7.524;2023-02-16T00:20:22;99648.88;;;24.09;31.42
67818;BME280;54614;47.576;7.524;2023-02-16T00:22:48;99643.97;;;24.13;31.15
67818;BME280;54614;47.576;7.524;2023-02-16T00:25:14;99646.00;;;24.11;31.18
67818;BME280;54614;47.576;7.524;2023-02-16T00:27:40;99645.16;;;24.10;31.32
67818;BME280;54614;47.576;7.524;2023-02-16T00:30:15;99642.66;;;24.09;31.32
67818;BME280;54614;47.576;7.524;2023-02-16T00:32:41;99645.34;;;24.09;31.48
67818;BME280;54614;47.576;7.524;2023-02-16T00:35:18;99649.22;;;24.06;31.48
67818;BME280;54614;47.576;7.524;2023-02-16T00:37:48;99645.72;;;24.06;31.36
67818;BME280;54614;47.576;7.524;2023-02-16T00:40:15;99644.88;;;24.05;31.28
67818;BME280;54614;47.576;7.524;2023-02-16T00:42:46;99643.03;;;24.06;31.18
67818;BME280;54614;47.576;7.524;2023-02-16T00:45:17;99648.41;;;24.06;31.46
67818;BME280;54614;47.576;7.524;2023-02-16T00:47:47;99647.56;;;24.05;31.28
67818;BME280;54614;47.576;7.524;2023-02-16T00:50:21;99645.06;;;24.04;31.27
67818;BME280;54614;47.576;7.524;2023-02-16T00:52:49;99644.41;;;24.02;31.19
67818;BME280;54614;47.576;7.524;2023-02-16T00:55:22;99653.97;;;24.04;31.25
67818;BME280;54614;47.576;7.524;2023-02-16T00:58:21;99651.44;;;24.03;31.49
67818;BME280;54614;47.576;7.524;2023-02-16T01:00:57;99656.19;;;24.01;31.29
67818;BME280;54614;47.576;7.524;2023-02-16T01:03:28;99652.00;;;23.98;31.36
67818;BME280;54614;47.576;7.524;2023-02-16T01:05:54;99650.16;;;23.99;31.03
67818;BME280;54614;47.576;7.524;2023-02-16T01:08:40;99636.72;;;23.99;31.30
67818;BME280;54614;47.576;7.524;2023-02-16T01:11:25;99640.06;;;24.01;31.36
67818;BME280;54614;47.576;7.524;2023-02-16T01:13:53;99635.69;;;24.00;31.31
67818;BME280;54614;47.576;7.524;2023-02-16T01:16:35;99635.03;;;23.98;31.60
67818;BME280;54614;47.576;7.524;2023-02-16T01:19:02;99645.97;;;23.96;31.19
67818;BME280;54614;47.576;7.524;2023-02-16T01:21:28;99640.41;;;23.98;31.31
67818;BME280;54614;47.576;7.524;2023-02-16T01:23:54;99642.09;;;23.99;31.12
67818;BME280;54614;47.576;7.524;2023-02-16T01:26:21;99638.56;;;23.98;31.40
67818;BME280;54614;47.576;7.524;2023-02-16T01:28:47;99643.47;;;23.95;31.43
67818;BME280;54614;47.576;7.524;2023-02-16T01:31:14;99632.72;;;23.95;31.50
67818;BME280;54614;47.576;7.524;2023-02-16T01:33:41;99646.16;;;23.95;31.56
67818;BME280;54614;47.576;7.524;2023-02-16T01:36:34;99634.56;;;23.94;31.45
67818;BME280;54614;47.576;7.524;2023-02-16T01:39:01;99630.41;;;23.92;31.29
67818;BME280;54614;47.576;7.524;2023-02-16T01:44:38;99634.94;;;23.91;31.27
67818;BME280;54614;47.576;7.524;2023-02-16T01:50:26;99632.59;;;23.88;31.51
67818;BME280;54614;47.576;7.524;2023-02-16T01:56:38;99632.06;;;23.93;31.46
67818;BME280;54614;47.576;7.524;2023-02-16T02:02:16;99630.75;;;23.89;31.52
67818;BME280;54614;47.576;7.524;2023-02-16T02:05:28;99624.72;;;23.87;31.48
67818;BME280;54614;47.576;7.524;2023-02-16T02:13:25;99621.38;;;23.85;31.00
67818;BME280;54614;47.576;7.524;2023-02-16T02:15:56;99626.41;;;23.88;31.22
67818;BME280;54614;47.576;7.524;2023-02-16T02:18:22;99635.84;;;23.84;31.68
67818;BME280;54614;47.576;7.524;2023-02-16T02:27:26;99625.94;;;23.84;31.48
67818;BME280;54614;47.576;7.524;2023-02-16T02:42:03;99603.97;;;23.81;31.20
67818;BME280;54614;47.576;7.524;2023-02-16T02:44:48;99609.50;;;23.79;31.30
67818;BME280;54614;47.576;7.524;2023-02-16T02:47:16;99610.72;;;23.76;31.36
67818;BME280;54614;47.576;7.524;2023-02-16T02:49:53;99610.91;;;23.75;31.26
67818;BME280;54614;47.576;7.524;2023-02-16T02:52:21;99611.72;;;23.75;31.27
67818;BME280;54614;47.576;7.524;2023-02-16T02:54:48;99604.50;;;23.76;31.40
67818;BME280;54614;47.576;7.524;2023-02-16T02:57:39;99616.28;;;23.75;31.21
67818;BME280;54614;47.576;7.524;2023-02-16T03:00:32;99618.31;;;23.73;31.39
67818;BME280;54614;47.576;7.524;2023-02-16T03:03:36;99614.41;;;23.75;31.22
67818;BME280;54614;47.576;7.524;2023-02-16T03:06:26;99611.72;;;23.75;31.38
67818;BME280;54614;47.576;7.524;2023-02-16T03:09:01;99606.72;;;23.72;31.40
67818;BME280;54614;47.576;7.524;2023-02-16T03:11:28;99616.09;;;23.76;31.38
67818;BME280;54614;47.576;7.524;2023-02-16T03:16:57;99598.66;;;23.72;31.04
67818;BME280;54614;47.576;7.524;2023-02-16T03:19:45;99604.88;;;23.73;31.38
67818;BME280;54614;47.576;7.524;2023-02-16T03:22:33;99606.06;;;23.70;31.27
67818;BME280;54614;47.576;7.524;2023-02-16T03:25:21;99603.38;;;23.70;31.33
67818;BME280;54614;47.576;7.524;2023-02-16T03:28:08;99602.38;;;23.71;31.14
67818;BME280;54614;47.576;7.524;2023-02-16T03:30:55;99608.94;;;23.69;31.46
67818;BME280;54614;47.576;7.524;2023-02-16T03:33:24;99611.81;;;23.67;31.34
67818;BME280;54614;47.576;7.524;2023-02-16T03:35:51;99608.75;;;23.70;31.30
67818;BME280;54614;47.576;7.524;2023-02-16T03:38:18;99619.03;;;23.67;31.39
67818;BME280;54614;47.576;7.524;2023-02-16T03:40:48;99618.84;;;23.68;31.13
67818;BME280;54614;47.576;7.524;2023-02-16T03:43:14;99624.22;;;23.68;31.15
67818;BME280;54614;47.576;7.524;2023-02-16T03:45:42;99631.81;;;23.65;31.15
67818;BME280;54614;47.576;7.524;2023-02-16T03:48:09;99628.75;;;23.68;31.35
67818;BME280;54614;47.576;7.524;2023-02-16T03:50:35;99636.81;;;23.68;31.45
67818;BME280;54614;47.576;7.524;2023-02-16T03:53:01;99626.91;;;23.68;31.13
67818;BME280;54614;47.576;7.524;2023-02-16T03:55:38;99622.91;;;23.64;31.29
67818;BME280;54614;47.576;7.524;2023-02-16T03:58:07;99624.75;;;23.64;31.33
67818;BME280;54614;47.576;7.524;2023-02-16T04:00:35;99628.28;;;23.64;31.21
67818;BME280;54614;47.576;7.524;2023-02-16T04:03:03;99617.34;;;23.66;31.01
67818;BME280;54614;47.576;7.524;2023-02-16T04:05:29;99623.75;;;23.65;31.27
67818;BME280;54614;47.576;7.524;2023-02-16T04:07:55;99621.16;;;23.71;31.13
67818;BME280;54614;47.576;7.524;2023-02-16T04:10:23;99633.84;;;23.63;31.31
67818;BME280;54614;47.576;7.524;2023-02-16T04:12:48;99625.94;;;23.61;31.39
67818;BME280;54614;47.576;7.524;2023-02-16T04:15:19;99633.19;;;23.61;31.54
67818;BME280;54614;47.576;7.524;2023-02-16T04:17:45;99623.28;;;23.61;31.42
67818;BME280;54614;47.576;7.524;2023-02-16T04:20:18;99626.44;;;23.65;31.19
67818;BME280;54614;47.576;7.524;2023-02-16T04:22:45;99622.44;;;23.61;31.45
67818;BME280;54614;47.576;7.524;2023-02-16T04:25:12;99629.66;;;23.60;31.46
67818;BME280;54614;47.576;7.524;2023-02-16T04:27:40;99624.28;;;23.60;31.20
67818;BME280;54614;47.576;7.524;2023-02-16T04:30:10;99638.91;;;23.58;31.33
67818;BME280;54614;47.576;7.524;2023-02-16T04:32:37;99629.78;;;23.67;31.66
67818;BME280;54614;47.576;7.524;2023-02-16T04:35:04;99630.31;;;23.62;31.27
67818;BME280;54614;47.576;7.524;2023-02-16T04:37:30;99625.13;;;23.61;31.48
67818;BME280;54614;47.576;7.524;2023-02-16T04:39:55;99636.69;;;23.61;31.19
67818;BME280;54614;47.576;7.524;2023-02-16T04:42:22;99627.16;;;23.59;31.42
67818;BME280;54614;47.576;7.524;2023-02-16T04:44:47;99624.75;;;23.64;31.50
67818;BME280;54614;47.576;7.524;2023-02-16T04:47:14;99640.22;;;23.62;31.54
67818;BME280;54614;47.576;7.524;2023-02-16T04:49:40;99637.63;;;23.45;31.97
67818;BME280;54614;47.576;7.524;2023-02-16T04:52:06;99636.91;;;23.52;31.36
67818;BME280;54614;47.576;7.524;2023-02-16T04:54:32;99641.78;;;23.56;31.29
67818;BME280;54614;47.576;7.524;2023-02-16T04:56:59;99639.75;;;23.58;31.52
67818;BME280;54614;47.576;7.524;2023-02-16T04:59:25;99645.31;;;23.48;31.51
67818;BME280;54614;47.576;7.524;2023-02-16T05:01:51;99642.09;;;23.53;31.21
67818;BME280;54614;47.576;7.524;2023-02-16T05:04:18;99642.09;;;23.53;31.60
67818;BME280;54614;47.576;7.524;2023-02-16T05:06:44;99636.72;;;23.53;31.69
67818;BME280;54614;47.576;7.524;2023-02-16T05:09:10;99633.91;;;23.55;31.30
67818;BME280;54614;47.576;7.524;2023-02-16T05:11:36;99639.59;;;23.52;31.55
67818;BME280;54614;47.576;7.524;2023-02-16T05:14:33;99635.94;;;23.44;31.41
67818;BME280;54614;47.576;7.524;2023-02-16T05:17:20;99631.84;;;23.34;31.41
67818;BME280;54614;47.576;7.524;2023-02-16T05:19:55;99636.97;;;23.43;31.33
67818;BME280;54614;47.576;7.524;2023-02-16T05:22:22;99639.47;;;23.45;31.18
67818;BME280;54614;47.576;7.524;2023-02-16T05:24:49;99647.81;;;23.50;31.19
67818;BME280;54614;47.576;7.524;2023-02-16T05:27:24;99644.13;;;23.51;30.82
67818;BME280;54614;47.576;7.524;2023-02-16T05:29:50;99628.56;;;23.46;30.94
67818;BME280;54614;47.576;7.524;2023-02-16T05:32:17;99639.94;;;23.48;31.09
67818;BME280;54614;47.576;7.524;2023-02-16T05:34:43;99644.84;;;23.45;30.82
67818;BME280;54614;47.576;7.524;2023-02-16T05:37:12;99645.16;;;23.50;30.78
67818;BME280;54614;47.576;7.524;2023-02-16T05:39:38;99645.16;;;23.50;30.65
67818;BME280;54614;47.576;7.524;2023-02-16T05:42:04;99648.31;;;23.54;30.68
67818;BME280;54614;47.576;7.524;2023-02-16T05:44:30;99636.25;;;23.50;30.48
67818;BME280;54614;47.576;7.524;2023-02-16T05:46:55;99646.63;;;23.53;30.49
67818;BME280;54614;47.576;7.524;2023-02-16T05:49:21;99650.84;;;23.55;30.20
67818;BME280;54614;47.576;7.524;2023-02-16T05:51:47;99649.84;;;23.56;30.26
67818;BME280;54614;47.576;7.524;2023-02-16T05:54:14;99650.31;;;23.60;30.05
67818;BME280;54614;47.576;7.524;2023-02-16T05:56:44;99653.53;;;23.55;30.17
67818;BME280;54614;47.576;7.524;2023-02-16T05:59:11;99643.44;;;23.57;30.25
67818;BME280;54614;47.576;7.524;2023-02-16T06:01:38;99646.13;;;23.57;29.91
67818;BME280;54614;47.576;7.524;2023-02-16T06:04:08;99655.03;;;23.58;29.85
67818;BME280;54614;47.576;7.524;2023-02-16T06:06:35;99657.06;;;23.56;29.70
67818;BME280;54614;47.576;7.524;2023-02-16T06:09:04;99656.03;;;23.57;30.00
67818;BME280;54614;47.576;7.524;2023-02-16T06:11:30;99658.06;;;23.55;29.90
67818;BME280;54614;47.576;7.524;2023-02-16T06:14:10;99654.53;;;23.54;30.05
67818;BME280;54614;47.576;7.524;2023-02-16T06:16:40;99649.66;;;23.58;29.99
67818;BME280;54614;47.576;7.524;2023-02-16T07:05:00;99677.59;;;23.40;32.01
67818;BME280;54614;47.576;7.524;2023-02-16T07:07:26;99688.53;;;23.39;31.50
67818;BME280;54614;47.576;7.524;2023-02-16T07:09:52;99684.59;;;23.50;31.26
67818;BME280;54614;47.576;7.524;2023-02-16T07:12:18;99680.22;;;23.48;30.89
67818;BME280;54614;47.576;7.524;2023-02-16T07:14:43;99683.41;;;23.52;30.92
67818;BME280;54614;47.576;7.524;2023-02-16T07:17:09;99680.75;;;23.44;30.92
67818;BME280;54614;47.576;7.524;2023-02-16T07:19:35;99687.44;;;23.48;30.89
67818;BME280;54614;47.576;7.524;2023-02-16T07:22:02;99691.56;;;23.36;30.94
67818;BME280;54614;47.576;7.524;2023-02-16T07:24:29;99697.59;;;23.38;30.86
67818;BME280;54614;47.576;7.524;2023-02-16T07:26:55;99701.06;;;23.46;30.77
67818;BME280;54614;47.576;7.524;2023-02-16T07:29:22;99700.88;;;23.48;30.86
67818;BME280;54614;47.576;7.524;2023-02-16T07:31:48;99694.97;;;23.53;30.77
67818;BME280;54614;47.576;7.524;2023-02-16T07:34:15;99705.25;;;23.49;30.62
67818;BME280;54614;47.576;7.524;2023-02-16T07:36:40;99708.56;;;23.59;30.53
67818;BME280;54614;47.576;7.524;2023-02-16T07:39:06;99708.88;;;23.64;30.63
67818;BME280;54614;47.576;7.524;2023-02-16T07:41:32;99709.63;;;23.73;30.30
67818;BME280;54614;47.576;7.524;2023-02-16T07:43:58;99703.63;;;23.71;29.99
67818;BME280;54614;47.576;7.524;2023-02-16T07:46:24;99706.13;;;23.72;30.07
67818;BME280;54614;47.576;7.524;2023-02-16T07:48:49;99709.16;;;23.69;29.95
67818;BME280;54614;47.576;7.524;2023-02-16T07:51:23;99707.31;;;23.70;30.26
67818;BME280;54614;47.576;7.524;2023-02-16T07:53:50;99712.03;;;23.68;30.30
67818;BME280;54614;47.576;7.524;2023-02-16T07:56:22;99707.66;;;23.67;30.46
67818;BME280;54614;47.576;7.524;2023-02-16T07:58:54;99709.16;;;23.69;30.41
67818;BME280;54614;47.576;7.524;2023-02-16T08:01:21;99712.22;;;23.66;30.29
67818;BME280;54614;47.576;7.524;2023-02-16T08:03:48;99717.88;;;23.71;30.32
67818;BME280;54614;47.576;7.524;2023-02-16T08:06:14;99717.69;;;23.73;30.18
67818;BME280;54614;47.576;7.524;2023-02-16T08:08:41;99726.91;;;23.78;30.25
67818;BME280;54614;47.576;7.524;2023-02-16T08:11:20;99725.34;;;23.84;29.70
67818;BME280;54614;47.576;7.524;2023-02-16T08:13:47;99716.75;;;23.89;29.89
67818;BME280;54614;47.576;7.524;2023-02-16T08:16:22;99722.22;;;23.95;29.98
67818;BME280;54614;47.576;7.524;2023-02-16T08:18:49;99727.25;;;23.98;29.79
67818;BME280;54614;47.576;7.524;2023-02-16T08:21:19;99731.59;;;23.99;29.46
67818;BME280;54614;47.576;7.524;2023-02-16T08:24:00;99727.31;;;23.90;29.65
67818;BME280;54614;47.576;7.524;2023-02-16T08:26:37;99727.38;;;23.82;29.61
67818;BME280;54614;47.576;7.524;2023-02-16T08:29:06;99726.97;;;23.70;30.17
67818;BME280;54614;47.576;7.524;2023-02-16T08:31:35;99726.97;;;23.70;30.30
67818;BME280;54614;47.576;7.524;2023-02-16T08:34:03;99729.09;;;23.75;30.09
67818;BME280;54614;47.576;7.524;2023-02-16T08:36:34;99720.97;;;23.83;30.06
67818;BME280;54614;47.576;7.524;2023-02-16T08:39:03;99719.31;;;23.51;31.07
67818;BME280;54614;47.576;7.524;2023-02-16T08:41:34;99719.19;;;23.44;31.34
67818;BME280;54614;47.576;7.524;2023-02-16T08:44:01;99727.13;;;23.38;31.54
67818;BME280;54614;47.576;7.524;2023-02-16T08:46:29;99722.06;;;23.43;31.07
67818;BME280;54614;47.576;7.524;2023-02-16T08:48:59;99718.53;;;23.42;31.48
67818;BME280;54614;47.576;7.524;2023-02-16T08:51:34;99719.38;;;23.43;31.26
67818;BME280;54614;47.576;7.524;2023-02-16T08:54:02;99725.94;;;23.40;31.27
67818;BME280;54614;47.576;7.524;2023-02-16T08:56:29;99715.50;;;23.45;31.30
67818;BME280;54614;47.576;7.524;2023-02-16T08:58:56;99717.66;;;23.50;31.09
67818;BME280;54614;47.576;7.524;2023-02-16T09:01:22;99717.47;;;23.52;31.28
67818;BME280;54614;47.576;7.524;2023-02-16T09:03:49;99716.13;;;23.56;31.29
67818;BME280;54614;47.576;7.524;2023-02-16T09:06:17;99708.38;;;23.61;31.05
67818;BME280;54614;47.576;7.524;2023-02-16T09:08:54;99720.44;;;23.65;31.40
67818;BME280;54614;47.576;7.524;2023-02-16T09:11:21;99721.81;;;23.61;31.08
67818;BME280;54614;47.576;7.524;2023-02-16T09:13:48;99718.53;;;23.73;31.03
67818;BME280;54614;47.576;7.524;2023-02-16T09:16:19;99716.50;;;23.75;31.21
67818;BME280;54614;47.576;7.524;2023-02-16T09:18:46;99712.16;;;23.74;31.10
67818;BME280;54614;47.576;7.524;2023-02-16T09:21:22;99712.75;;;23.85;31.23
67818;BME280;54614;47.576;7.524;2023-02-16T09:23:50;99719.72;;;23.94;30.92
67818;BME280;54614;47.576;7.524;2023-02-16T09:26:21;99717.16;;;24.00;30.70
67818;BME280;54614;47.576;7.524;2023-02-16T09:28:48;99726.34;;;24.06;30.72
67818;BME280;54614;47.576;7.524;2023-02-16T09:31:20;99735.72;;;24.10;30.74
67818;BME280;54614;47.576;7.524;2023-02-16T09:34:20;99743.06;;;23.93;31.19
67818;BME280;54614;47.576;7.524;2023-02-16T09:36:47;99745.88;;;24.00;30.94
67818;BME280;54614;47.576;7.524;2023-02-16T09:39:14;99737.94;;;24.06;30.81
67818;BME280;54614;47.576;7.524;2023-02-16T09:42:19;99744.81;;;24.09;30.71
67818;BME280;54614;47.576;7.524;2023-02-16T09:45:11;99732.91;;;24.03;31.17
67818;BME280;54614;47.576;7.524;2023-02-16T09:47:46;99727.38;;;24.05;30.85
67818;BME280;54614;47.576;7.524;2023-02-16T09:50:26;99724.84;;;24.03;31.21
67818;BME280;54614;47.576;7.524;2023-02-16T09:53:20;99722.16;;;24.03;30.96
67818;BME280;54614;47.576;7.524;2023-02-16T10:02:23;99713.38;;;24.32;30.57
67818;BME280;54614;47.576;7.524;2023-02-16T10:07:20;99714.31;;;24.39;30.92
67818;BME280;54614;47.576;7.524;2023-02-16T10:09:54;99719.13;;;24.44;30.70
67818;BME280;54614;47.576;7.524;2023-02-16T10:12:37;99720.53;;;24.55;30.49
67818;BME280;54614;47.576;7.524;2023-02-16T10:15:21;99720.19;;;24.58;30.33
67818;BME280;54614;47.576;7.524;2023-02-16T10:18:07;99718.13;;;24.60;30.35
67818;BME280;54614;47.576;7.524;2023-02-16T10:20:43;99716.09;;;24.62;30.53
67818;BME280;54614;47.576;7.524;2023-02-16T10:23:36;99715.44;;;24.60;30.55
67818;BME280;54614;47.576;7.524;2023-02-16T10:26:37;99713.97;;;24.57;30.66
67818;BME280;54614;47.576;7.524;2023-02-16T10:29:16;99707.28;;;24.68;30.23
67818;BME280;54614;47.576;7.524;2023-02-16T10:35:05;99698.09;;;24.77;30.29
67818;BME280;54614;47.576;7.524;2023-02-16T10:37:55;99702.66;;;24.77;30.38
67818;BME280;54614;47.576;7.524;2023-02-16T10:41:05;99699.03;;;24.84;30.34
67818;BME280;54614;47.576;7.524;2023-02-16T10:43:47;99700.03;;;24.83;30.38
67818;BME280;54614;47.576;7.524;2023-02-16T10:46:30;99695.97;;;24.87;30.42
67818;BME280;54614;47.576;7.524;2023-02-16T10:48:58;99698.66;;;24.87;30.42
67818;BME280;54614;47.576;7.524;2023-02-16T10:51:32;99700.97;;;24.90;30.72
67818;BME280;54614;47.576;7.524;2023-02-16T10:54:21;99696.06;;;24.79;30.31
67818;BME280;54614;47.576;7.524;2023-02-16T10:56:56;99702.28;;;24.80;30.87
67818;BME280;54614;47.576;7.524;2023-02-16T10:59:40;99692.06;;;24.75;30.59
67818;BME280;54614;47.576;7.524;2023-02-16T11:02:45;99687.72;;;24.74;31.06
67818;BME280;54614;47.576;7.524;2023-02-16T11:05:35;99680.19;;;24.69;31.05
67818;BME280;54614;47.576;7.524;2023-02-16T11:08:05;99679.00;;;24.72;30.98
67818;BME280;54614;47.576;7.524;2023-02-16T11:10:47;99676.75;;;24.75;31.23
67818;BME280;54614;47.576;7.524;2023-02-16T11:13:32;99678.88;;;24.80;31.18
67818;BME280;54614;47.576;7.524;2023-02-16T11:16:19;99667.19;;;24.73;31.23
67818;BME280;54614;47.576;7.524;2023-02-16T11:18:58;99661.63;;;24.74;31.48
67818;BME280;54614;47.576;7.524;2023-02-16T11:21:50;99653.84;;;24.80;31.34
67818;BME280;54614;47.576;7.524;2023-02-16T11:24:31;99651.16;;;24.80;31.44
67818;BME280;54614;47.576;7.524;2023-02-16T11:29:38;99645.75;;;24.80;31.42
67818;BME280;54614;47.576;7.524;2023-02-16T11:32:08;99644.19;;;24.85;31.17
67818;BME280;54614;47.576;7.524;2023-02-16T11:34:48;99644.56;;;24.97;31.29
67818;BME280;54614;47.576;7.524;2023-02-16T11:37:25;99638.59;;;25.01;30.98
67818;BME280;54614;47.576;7.524;2023-02-16T11:40:00;99638.16;;;24.98;31.09
67818;BME280;54614;47.576;7.524;2023-02-16T11:42:37;99635.16;;;24.93;31.32
67818;BME280;54614;47.576;7.524;2023-02-16T11:45:06;99631.38;;;24.87;31.50
67818;BME280;54614;47.576;7.524;2023-02-16T11:47:41;99629.88;;;24.99;31.11
67818;BME280;54614;47.576;7.524;2023-02-16T11:50:24;99622.69;;;25.21;30.77
67818;BME280;54614;47.576;7.524;2023-02-16T11:55:36;99614.41;;;25.23;30.42
67818;BME280;54614;47.576;7.524;2023-02-16T12:12:41;99608.50;;;25.55;30.60
67818;BME280;54614;47.576;7.524;2023-02-16T12:18:31;99591.84;;;25.66;30.58
67818;BME280;54614;47.576;7.524;2023-02-16T12:21:50;99582.28;;;25.64;30.85
67818;BME280;54614;47.576;7.524;2023-02-16T12:24:45;99579.78;;;25.62;30.10
67818;BME280;54614;47.576;7.524;2023-02-16T12:27:32;99583.50;;;25.61;30.27
67818;BME280;54614;47.576;7.524;2023-02-16T12:39:07;99563.59;;;25.62;30.67
67818;BME280;54614;47.576;7.524;2023-02-16T12:44:49;99561.56;;;25.43;30.84
67818;BME280;54614;47.576;7.524;2023-02-16T12:47:35;99557.03;;;25.44;31.08
67818;BME280;54614;47.576;7.524;2023-02-16T12:50:27;99551.38;;;25.38;31.42
67818;BME280;54614;47.576;7.524;2023-02-16T12:52:58;99551.19;;;25.40;31.38
67818;BME280;54614;47.576;7.524;2023-02-16T12:55:34;99551.38;;;25.38;31.29
67818;BME280;54614;47.576;7.524;2023-02-16T13:00:51;99551.44;;;25.45;31.17
67818;BME280;54614;47.576;7.524;2023-02-16T13:03:52;99548.56;;;25.47;31.29
67818;BME280;54614;47.576;7.524;2023-02-16T13:06:39;99549.00;;;25.50;30.84
67818;BME280;54614;47.576;7.524;2023-02-16T13:12:09;99541.06;;;25.42;31.03
67818;BME280;54614;47.576;7.524;2023-02-16T13:14:42;99546.25;;;25.44;31.14
67818;BME280;54614;47.576;7.524;2023-02-16T13:17:25;99540.84;;;25.44;31.32
67818;BME280;54614;47.576;7.524;2023-02-16T13:19:52;99537.53;;;25.42;31.09
67818;BME280;54614;47.576;7.524;2023-02-16T13:28:37;99530.66;;;25.39;30.79
67818;BME280;54614;47.576;7.524;2023-02-16T13:34:13;99525.47;;;25.37;30.82
67818;BME280;54614;47.576;7.524;2023-02-16T13:42:34;99513.47;;;25.40;31.37
67818;BME280;54614;47.576;7.524;2023-02-16T13:45:20;99512.19;;;25.36;31.10
67818;BME280;54614;47.576;7.524;2023-02-16T13:47:47;99503.16;;;25.44;31.30
67818;BME280;54614;47.576;7.524;2023-02-16T13:50:26;99508.19;;;25.53;31.00
67818;BME280;54614;47.576;7.524;2023-02-16T13:52:56;99500.84;;;25.41;31.12
67818;BME280;54614;47.576;7.524;2023-02-16T13:55:31;99502.66;;;25.33;31.10
67818;BME280;54614;47.576;7.524;2023-02-16T13:58:05;99501.94;;;25.25;31.05
67818;BME280;54614;47.576;7.524;2023-02-16T14:00:45;99515.63;;;25.23;30.95
67818;BME280;54614;47.576;7.524;2023-02-16T14:05:52;99512.28;;;25.21;30.75
67818;BME280;54614;47.576;7.524;2023-02-16T14:08:27;99503.56;;;25.19;30.80
67818;BME280;54614;47.576;7.524;2023-02-16T14:19:02;99497.72;;;25.16;31.55
67818;BME280;54614;47.576;7.524;2023-02-16T14:21:43;99495.94;;;25.23;30.99
67818;BME280;54614;47.576;7.524;2023-02-16T14:27:20;99492.91;;;25.32;30.96
67818;BME280;54614;47.576;7.524;2023-02-16T14:29:58;99492.06;;;25.32;31.03
67818;BME280;54614;47.576;7.524;2023-02-16T14:32:33;99484.81;;;25.32;30.91
67818;BME280;54614;47.576;7.524;2023-02-16T14:35:25;99486.50;;;25.33;31.09
67818;BME280;54614;47.576;7.524;2023-02-16T14:38:01;99489.00;;;25.35;30.73
67818;BME280;54614;47.576;7.524;2023-02-16T14:43:09;99485.47;;;25.34;30.50
67818;BME280;54614;47.576;7.524;2023-02-16T14:57:36;99484.28;;;25.16;31.28
67818;BME280;54614;47.576;7.524;2023-02-16T15:01:08;99490.69;;;25.15;31.15
67818;BME280;54614;47.576;7.524;2023-02-16T15:03:55;99490.88;;;25.13;31.16
67818;BME280;54614;47.576;7.524;2023-02-16T15:08:57;99494.97;;;25.09;31.00
67818;BME280;54614;47.576;7.524;2023-02-16T15:11:52;99497.28;;;25.12;31.08
67818;BME280;54614;47.576;7.524;2023-02-16T15:14:59;99492.69;;;25.06;31.24
67818;BME280;54614;47.576;7.524;2023-02-16T15:17:47;99494.16;;;25.09;31.05
67818;BME280;54614;47.576;7.524;2023-02-16T15:20:44;99489.97;;;25.06;31.29
67818;BME280;54614;47.576;7.524;2023-02-16T15:23:23;99493.75;;;25.12;30.89
67818;BME280;54614;47.576;7.524;2023-02-16T15:26:06;99497.66;;;25.09;30.95
67818;BME280;54614;47.576;7.524;2023-02-16T15:28:37;99490.38;;;25.03;31.18
67818;BME280;54614;47.576;7.524;2023-02-16T15:31:16;99498.25;;;25.04;31.13
67818;BME280;54614;47.576;7.524;2023-02-16T15:33:56;99499.66;;;25.00;31.34
67818;BME280;54614;47.576;7.524;2023-02-16T15:36:38;99500.31;;;25.02;30.82
67818;BME280;54614;47.576;7.524;2023-02-16T15:39:11;99491.19;;;25.03;31.06
67818;BME280;54614;47.576;7.524;2023-02-16T15:41:42;99486.19;;;25.00;30.97
67818;BME280;54614;47.576;7.524;2023-02-16T15:44:32;99482.47;;;25.01;31.24
67818;BME280;54614;47.576;7.524;2023-02-16T15:47:12;99486.09;;;24.94;31.46
67818;BME280;54614;47.576;7.524;2023-02-16T15:49:38;99479.81;;;24.87;31.59
67818;BME280;54614;47.576;7.524;2023-02-16T15:52:33;99479.94;;;24.79;32.01
67818;BME280;54614;47.576;7.524;2023-02-16T15:55:04;99474.31;;;24.73;31.83
67818;BME280;54614;47.576;7.524;2023-02-16T15:57:37;99473.09;;;24.76;31.89
67818;BME280;54614;47.576;7.524;2023-02-16T16:00:21;99470.78;;;24.73;32.13
67818;BME280;54614;47.576;7.524;2023-02-16T16:02:51;99478.03;;;24.72;31.96
67818;BME280;54614;47.576;7.524;2023-02-16T16:05:24;99477.56;;;24.69;32.08
67818;BME280;54614;47.576;7.524;2023-02-16T16:07:52;99477.00;;;24.73;31.79
67818;BME280;54614;47.576;7.524;2023-02-16T16:13:02;99480.25;;;24.69;32.13
67818;BME280;54614;47.576;7.524;2023-02-16T16:15:39;99488.66;;;24.81;31.83
67818;BME280;54614;47.576;7.524;2023-02-16T16:18:37;99491.81;;;24.84;31.69
67818;BME280;54614;47.576;7.524;2023-02-16T16:21:25;99486.63;;;24.83;31.77
67818;BME280;54614;47.576;7.524;2023-02-16T16:24:05;99481.03;;;24.84;31.31
67818;BME280;54614;47.576;7.524;2023-02-16T16:26:55;99489.50;;;24.81;31.11
67818;BME280;54614;47.576;7.524;2023-02-16T16:29:46;99480.41;;;24.82;31.23
67818;BME280;54614;47.576;7.524;2023-02-16T16:32:25;99484.38;;;24.86;30.98
67818;BME280;54614;47.576;7.524;2023-02-16T16:34:53;99484.38;;;24.86;31.09
67818;BME280;54614;47.576;7.524;2023-02-16T16:37:34;99493.22;;;24.80;30.88
67818;BME280;54614;47.576;7.524;2023-02-16T16:42:32;99491.34;;;24.81;30.74
67818;BME280;54614;47.576;7.524;2023-02-16T16:47:50;99491.81;;;24.84;30.86
67818;BME280;54614;47.576;7.524;2023-02-16T16:52:47;99480.72;;;24.94;30.55
67818;BME280;54614;47.576;7.524;2023-02-16T16:57:54;99476.75;;;24.90;31.08